Eliot, ME

6:42 PM EST on March 03, 2015 (GMT -0500)
Pease International Tradeport | Change Station
CLOSE
Current Station
Airport
Location: Portsmouth,
Elevation: 102 ft
Nearby Weather Stations
Active Advisory: Winter Weather Advisory

Elev 102 ft 43.08 °N, 70.82 °W | Updated 44 minutes ago

Overcast
Overcast
28 °F
Feels Like 20 °F
N
7
Wind Variable Wind from SSE

Today
High -- | Low -- °F
--% Chance of Precip.
Yesterday
High -- | Low -- °F
Precip. -- in
6:16 AM 5:34 PM
Waxing Gibbous, 97% visible
Pressure 30.13 in
Visibility 10.0 miles
Clouds Overcast 7000 ft
Windchill 20 °F
Dew Point 7 °F
Humidity 43%
Rainfall 0.00 in
Snow Depth Not available.
UV 0 out of 12
Pollen .30 out of 12
Air Quality Not available.
Flu Activity Not available.
METAR KPSM 032258Z 16006KT 10SM OVC070 M02/M14 A3011 RMK AO2A SLP201 T10251137

More Conditions Fewer Conditions

Pressure 30.13 in
Visibility 10.0 miles
Clouds Overcast 7000 ft
Windchill 20 °F
Dew Point 7 °F
Humidity 43%
Rainfall 0.00 in
Snow Depth Not available.
UV 0 out of 12
Pollen .30 out of 12
Air Quality Not available.
Flu Activity Not available.
METAR KPSM 032258Z 16006KT 10SM OVC070 M02/M14 A3011 RMK AO2A SLP201 T10251137

More Conditions Fewer Conditions

10-Day Weather Forecast

Almanac

Astronomy

Mar. 03, 2015 Rise Set
Actual Time
Civil Twilight
Nautical Twilight
Astronomical Twilight
Moon
Length of Visible Light
Length of Day
Tomorrow will be .
, % of the Moon is Illuminated

Today's Extremes

State Highs State Lows

Community

WunderPhotos

Upload Photos

1,802,305 photos uploaded!

WunderBlogs® & News

Nearby

Air Quality

  Air Quality AQ Index Pollutant
Not available.

Snow Depth

Station Depth Elevation

Earthquake Activity

City Distance Mag. Time & Date
Minimum magnitude displayed is 2.5.

Coastal Water Temperatures

Place Temperature

Nearby Weather Stations

Winter Weather Advisory
Statement as of 3:06 PM EST on March 03, 2015

... Winter Weather Advisory remains in effect from 7 PM this
evening to 7 am EST Wednesday...

* hazard types... snow... possibly mixing with or changing to
sleet or freezing rain briefly after midnight before ending.

* Accumulations... snow accumulation of 3 to 5 inches.

* Timing... snow will start shortly after sunset and continue until
the pre-dawn hours. It may end as a brief period of sleet or light
freezing rain... or just rain along the immediate coast.

* Impacts... roads will become snow covered and slippery.

* Winds... south 5 to 10 mph with gusts up to 20 mph.

* Temperatures... in the upper 20s.

Precautionary/preparedness actions...

A Winter Weather Advisory means that periods of snow... sleet... or
freezing rain will cause travel difficulties. Be prepared for
slippery roads and limited visibilities... and use caution while
driving.